Terminal Aerodrome Forecast
Issued by NWS Albany, NY

Home | Current Version | Previous Version | Text Only | Print | Product List | Glossary On
Versions: 1 2 3 4 5 6 7 8 9 10 11 12 13 14 15 16 17 18 19 20 21 22 23 24 25 26 27 28 29 30 31 32 33 34 35 36 37
000
FTUS41 KALY 181100 RRA
TAFPOU
TAF
KPOU 181148Z 1812/1912 00000KT P6SM SCT025 OVC250
      TEMPO 1812/1815 OVC025
     FM181500 18005KT P6SM SCT025 SCT150 BKN200
     FM182100 19006KT P6SM BKN150 BKN200
     FM190000 VRB03KT P6SM OVC120=

USA.gov is the U.S. government's official web portal to all federal, state and local government web resources and services.